Time;durP1;ratioP1;P1;durP2;ratioP2;P2;SDS_P1;SDS_P2;PMS_P1;PMS_P2;Temp;Humidity;BMP_temperature;BMP_pressure;BME280_temperature;BME280_humidity;BME280_pressure;Samples;Min_cycle;Max_cycle;Signal;HPM_P1;HPM_P2
2023/09/19 00:02:19;;;;;;;1.33;1.23;;;;;;;17.43;76.50;97562.88;5065138;28;20465;-79
2023/09/19 00:04:46;;;;;;;1.40;1.30;;;;;;;17.38;77.02;97551.84;5064817;28;20481;-78
2023/09/19 00:07:13;;;;;;;2.20;1.47;;;;;;;17.39;77.01;97556.25;5068415;28;20537;-78
2023/09/19 00:09:41;;;;;;;1.50;1.37;;;;;;;17.45;76.62;97557.13;5068869;28;20481;-79
2023/09/19 00:12:09;;;;;;;1.17;1.07;;;;;;;17.44;76.84;97560.94;5069910;28;20463;-79
2023/09/19 00:14:36;;;;;;;1.57;1.47;;;;;;;17.46;76.84;97567.00;5070653;28;20603;-79
2023/09/19 00:17:08;;;;;;;1.90;1.50;;;;;;;17.47;77.06;97568.66;5070168;28;20496;-78
2023/09/19 00:19:34;;;;;;;1.43;1.33;;;;;;;17.40;77.50;97571.59;5070673;28;20457;-78
2023/09/19 00:22:02;;;;;;;1.97;1.27;;;;;;;17.19;77.30;97542.38;5071233;28;20444;-79
2023/09/19 00:24:29;;;;;;;2.20;1.20;;;;;;;17.39;77.78;97582.78;5069182;28;20486;-79
2023/09/19 00:26:56;;;;;;;1.63;1.20;;;;;;;17.38;77.96;97595.63;5071686;28;20552;-79
2023/09/19 00:29:23;;;;;;;1.63;1.20;;;;;;;17.39;77.69;97591.81;5069656;28;20868;-79
2023/09/19 00:31:50;;;;;;;1.33;1.20;;;;;;;17.48;77.52;97588.63;5069474;28;20469;-79
2023/09/19 00:34:20;;;;;;;1.63;1.20;;;;;;;17.54;77.11;97593.06;5069341;28;20450;-79
2023/09/19 00:36:47;;;;;;;1.20;1.10;;;;;;;17.43;77.02;97595.69;5071369;28;20443;-79
2023/09/19 00:39:14;;;;;;;1.30;1.20;;;;;;;17.46;77.32;97597.91;5067765;28;20465;-79
2023/09/19 00:41:40;;;;;;;1.57;1.20;;;;;;;17.46;77.20;97592.44;5069788;28;20496;-79
2023/09/19 00:44:09;;;;;;;1.40;1.30;;;;;;;17.50;76.99;97609.19;5068225;28;20505;-79
2023/09/19 00:46:36;;;;;;;1.87;1.30;;;;;;;17.56;76.53;97613.59;5070451;28;20541;-79
2023/09/19 00:49:03;;;;;;;1.63;1.10;;;;;;;17.39;76.76;97605.50;5070235;28;20494;-79
2023/09/19 00:51:31;;;;;;;1.33;1.17;;;;;;;17.43;77.11;97608.53;5070144;28;20805;-79
2023/09/19 00:54:00;;;;;;;1.67;1.30;;;;;;;17.39;77.09;97602.75;5069500;28;20454;-79
2023/09/19 00:56:26;;;;;;;1.27;1.17;;;;;;;17.45;77.04;97618.16;5067742;28;20451;-79
2023/09/19 00:58:53;;;;;;;1.73;1.30;;;;;;;17.44;77.25;97613.75;5066094;28;20560;-79
2023/09/19 01:01:20;;;;;;;1.80;1.10;;;;;;;17.59;76.64;97604.06;5057422;28;20822;-79
2023/09/19 01:03:47;;;;;;;2.40;1.20;;;;;;;17.58;76.65;97607.88;5063059;28;20568;-79
2023/09/19 01:06:14;;;;;;;1.20;1.10;;;;;;;17.56;76.70;97615.50;5069160;28;20485;-79
2023/09/19 01:08:42;;;;;;;1.20;1.10;;;;;;;17.58;76.60;97613.34;5068861;28;20449;-79
2023/09/19 01:11:14;;;;;;;1.23;0.90;;;;;;;17.52;76.84;97619.88;5068805;28;20845;-79
2023/09/19 01:13:49;;;;;;;1.63;1.10;;;;;;;17.68;76.37;97624.44;5067606;28;21064;-79
2023/09/19 01:16:21;;;;;;;2.23;1.10;;;;;;;17.49;76.62;97625.84;5065822;28;20782;-79
2023/09/19 01:18:54;;;;;;;1.93;1.10;;;;;;;17.48;77.12;97629.66;5065945;28;20459;-79
2023/09/19 01:21:26;;;;;;;2.00;1.13;;;;;;;17.44;77.24;97638.38;5069541;28;20485;-79
2023/09/19 01:24:11;;;;;;;1.13;1.03;;;;;;;17.46;77.37;97638.13;5067912;28;20505;-79
2023/09/19 01:26:56;;;;;;;1.37;1.27;;;;;;;17.35;77.83;97631.72;5070747;28;20443;-79
2023/09/19 01:29:32;;;;;;;1.43;1.27;;;;;;;17.41;77.70;97632.59;5067447;28;20517;-79
2023/09/19 01:32:02;;;;;;;1.73;1.10;;;;;;;17.40;77.38;97631.78;5066270;28;20498;-79
2023/09/19 01:34:45;;;;;;;1.37;1.00;;;;;;;17.38;77.14;97631.19;5069018;28;20488;-78
2023/09/19 01:37:12;;;;;;;1.10;1.00;;;;;;;17.30;77.26;97631.63;5068673;28;20462;-79
2023/09/19 01:39:38;;;;;;;1.67;1.00;;;;;;;17.35;77.23;97642.66;5069389;28;20466;-79
2023/09/19 01:42:10;;;;;;;1.10;1.00;;;;;;;17.39;77.07;97643.78;5069012;28;21495;-79
2023/09/19 01:44:41;;;;;;;2.70;1.00;;;;;;;17.44;77.08;97645.78;5068444;28;20474;-79
2023/09/19 01:47:25;;;;;;;1.00;0.90;;;;;;;17.45;76.97;97648.25;5068257;28;20522;-79
2023/09/19 01:49:57;;;;;;;1.10;1.00;;;;;;;17.48;76.72;97635.97;5067455;28;20965;-79
2023/09/19 01:52:29;;;;;;;1.23;1.10;;;;;;;17.44;76.88;97641.13;5068746;28;20533;-79
2023/09/19 01:54:59;;;;;;;1.30;1.20;;;;;;;17.48;76.84;97646.91;5068989;28;20553;-79
2023/09/19 01:57:28;;;;;;;1.50;1.30;;;;;;;17.32;77.60;97647.81;5069183;28;20477;-79
2023/09/19 01:59:59;;;;;;;1.20;1.10;;;;;;;17.12;78.11;97654.69;5070194;28;20535;-79
2023/09/19 02:02:29;;;;;;;1.13;1.03;;;;;;;17.23;78.00;97665.72;5066902;28;20469;-79
2023/09/19 02:04:55;;;;;;;1.30;1.10;;;;;;;17.33;77.31;97661.22;5058794;28;20466;-79
2023/09/19 02:07:23;;;;;;;1.17;0.97;;;;;;;17.19;77.97;97659.97;5055741;28;20454;-79
2023/09/19 02:09:50;;;;;;;1.30;1.20;;;;;;;17.42;77.20;97670.66;5069633;28;20493;-79
2023/09/19 02:12:16;;;;;;;1.20;1.10;;;;;;;17.35;77.58;97674.66;5067654;28;20507;-79
2023/09/19 02:14:43;;;;;;;2.13;1.17;;;;;;;17.28;77.85;97668.53;5065673;28;20474;-79
2023/09/19 02:17:11;;;;;;;2.33;1.50;;;;;;;17.23;78.12;97669.28;5067823;28;20529;-79
2023/09/19 02:19:40;;;;;;;1.13;0.93;;;;;;;17.28;77.71;97674.84;5068082;28;20466;-79
2023/09/19 02:22:10;;;;;;;1.97;1.20;;;;;;;17.35;77.58;97666.44;5065120;28;20462;-79
2023/09/19 02:24:38;;;;;;;1.27;1.07;;;;;;;17.15;78.25;97679.88;5066572;28;20540;-78
2023/09/19 02:27:05;;;;;;;1.20;1.10;;;;;;;17.27;77.83;97675.91;5066630;28;20524;-78
2023/09/19 02:29:34;;;;;;;1.97;1.40;;;;;;;17.28;77.50;97680.31;5067140;28;20523;-79
2023/09/19 02:32:01;;;;;;;1.20;1.10;;;;;;;17.11;77.89;97682.28;5066611;28;20459;-78
2023/09/19 02:34:28;;;;;;;1.40;0.97;;;;;;;17.11;78.22;97669.44;5065317;28;20470;-80
2023/09/19 02:36:56;;;;;;;1.87;1.13;;;;;;;17.19;77.88;97678.28;5067926;28;20939;-79
2023/09/19 02:39:24;;;;;;;1.70;1.20;;;;;;;17.29;77.50;97681.13;5064266;28;20530;-78
2023/09/19 02:41:51;;;;;;;1.30;1.13;;;;;;;17.00;78.09;97678.56;5067242;28;20525;-78
2023/09/19 02:44:19;;;;;;;1.30;1.20;;;;;;;16.81;78.97;97684.59;5066507;28;20946;-80
2023/09/19 02:46:47;;;;;;;5.13;1.37;;;;;;;16.86;79.10;97692.88;5069232;28;20537;-79
2023/09/19 02:49:14;;;;;;;1.20;1.03;;;;;;;17.05;78.12;97688.75;5067815;28;20531;-79
2023/09/19 02:51:41;;;;;;;2.13;1.13;;;;;;;17.02;77.86;97698.28;5068799;28;20474;-78
2023/09/19 02:54:09;;;;;;;3.13;1.30;;;;;;;16.91;78.30;97706.56;5066168;28;20466;-79
2023/09/19 02:56:37;;;;;;;1.10;1.00;;;;;;;16.96;77.83;97702.03;5066588;28;20465;-78
2023/09/19 02:59:04;;;;;;;1.97;1.17;;;;;;;16.99;77.49;97692.50;5068312;28;20455;-78
2023/09/19 03:01:31;;;;;;;1.90;1.40;;;;;;;17.00;77.20;97691.41;5068973;28;20545;-79
2023/09/19 03:03:59;;;;;;;1.93;1.10;;;;;;;17.01;77.07;97707.56;5066918;28;20834;-79
2023/09/19 03:06:26;;;;;;;1.73;1.10;;;;;;;17.13;76.42;97700.09;5067432;28;20454;-78
2023/09/19 03:08:55;;;;;;;1.13;1.03;;;;;;;17.05;77.00;97708.72;5064910;28;20459;-79
2023/09/19 03:11:24;;;;;;;1.57;1.47;;;;;;;17.00;77.01;97702.34;5055460;28;20567;-78
2023/09/19 03:13:53;;;;;;;2.10;1.07;;;;;;;17.07;77.03;97711.22;5060437;28;20983;-79
2023/09/19 03:16:21;;;;;;;1.33;1.23;;;;;;;17.10;76.94;97694.28;5067445;28;20807;-79
2023/09/19 03:18:48;;;;;;;1.67;1.40;;;;;;;17.23;76.39;97702.13;5068248;28;20450;-78
2023/09/19 03:21:15;;;;;;;1.23;0.97;;;;;;;17.32;76.26;97700.59;5067260;28;20450;-79
2023/09/19 03:23:45;;;;;;;1.07;0.90;;;;;;;17.28;76.24;97702.19;5065682;28;20482;-79
2023/09/19 03:26:13;;;;;;;2.50;1.27;;;;;;;17.19;77.04;97711.94;5068921;28;20450;-79
2023/09/19 03:28:42;;;;;;;1.20;0.97;;;;;;;17.22;76.32;97703.19;5067006;28;20450;-78
2023/09/19 03:31:10;;;;;;;2.30;1.33;;;;;;;17.00;78.09;97713.28;5061379;28;20571;-79
2023/09/19 03:33:37;;;;;;;1.13;1.03;;;;;;;16.94;78.13;97711.53;5064050;28;20450;-79
2023/09/19 03:36:05;;;;;;;1.13;1.03;;;;;;;16.74;79.01;97712.91;5066551;28;20509;-79
2023/09/19 03:38:33;;;;;;;1.47;1.10;;;;;;;16.86;79.41;97720.19;5065178;28;20461;-79
2023/09/19 03:41:00;;;;;;;1.20;1.10;;;;;;;16.75;80.30;97714.56;5069041;28;20508;-79
2023/09/19 03:43:26;;;;;;;1.50;1.40;;;;;;;16.68;80.65;97719.38;5068280;28;20454;-79
2023/09/19 03:45:55;;;;;;;1.10;1.00;;;;;;;16.62;81.39;97724.97;5065354;28;20481;-80
2023/09/19 03:48:22;;;;;;;1.27;1.17;;;;;;;16.38;83.40;97719.66;5069087;28;20461;-80
2023/09/19 03:50:49;;;;;;;1.93;1.30;;;;;;;16.23;83.95;97715.84;5056356;28;20815;-80
2023/09/19 03:53:16;;;;;;;2.40;1.60;;;;;;;16.23;85.09;97715.84;5062644;28;20446;-80
2023/09/19 03:55:45;;;;;;;1.60;1.50;;;;;;;16.15;86.09;97713.50;5068499;28;20490;-81
2023/09/19 03:58:12;;;;;;;2.03;1.40;;;;;;;16.07;86.40;97712.84;5070636;28;20486;-80
2023/09/19 04:00:39;;;;;;;1.67;1.43;;;;;;;15.97;86.90;97717.28;5069666;28;20446;-80
2023/09/19 04:03:07;;;;;;;1.40;1.30;;;;;;;15.84;87.89;97717.59;5064407;28;20803;-80
2023/09/19 04:05:34;;;;;;;2.87;1.53;;;;;;;15.74;88.00;97707.28;5070303;28;20477;-80
2023/09/19 04:08:01;;;;;;;1.73;1.30;;;;;;;15.82;87.86;97725.19;5068964;28;20446;-80
2023/09/19 04:10:28;;;;;;;2.00;1.53;;;;;;;15.89;87.46;97721.25;5071307;28;21014;-79
2023/09/19 04:12:55;;;;;;;2.27;1.80;;;;;;;16.01;86.63;97723.91;5066982;28;20458;-78
2023/09/19 04:15:23;;;;;;;2.50;1.80;;;;;;;16.02;86.71;97718.19;5069145;28;20476;-81
2023/09/19 04:17:50;;;;;;;1.60;1.50;;;;;;;16.11;86.35;97727.66;5068442;28;20482;-81
2023/09/19 04:20:19;;;;;;;2.80;1.77;;;;;;;16.05;86.33;97725.91;5071275;28;20450;-79
2023/09/19 04:22:47;;;;;;;1.73;1.10;;;;;;;16.18;85.48;97729.41;5070153;28;20533;-79
2023/09/19 04:25:14;;;;;;;1.40;1.30;;;;;;;16.28;85.34;97726.84;5070789;28;20462;-79
2023/09/19 04:27:41;;;;;;;1.60;1.50;;;;;;;16.29;85.39;97729.31;5069223;28;20545;-80
2023/09/19 04:30:11;;;;;;;1.97;1.37;;;;;;;16.38;85.09;97718.84;5067349;28;21119;-82
2023/09/19 04:32:39;;;;;;;1.40;1.30;;;;;;;16.44;84.66;97726.03;5065537;28;20464;-79
2023/09/19 04:35:08;;;;;;;2.63;1.50;;;;;;;16.59;84.11;97728.19;5054181;28;20563;-74
2023/09/19 04:37:39;;;;;;;1.70;1.30;;;;;;;16.64;84.57;97734.59;5064863;28;20450;-75
2023/09/19 04:40:12;;;;;;;3.83;1.40;;;;;;;16.64;84.64;97739.25;5043930;28;20458;-81
2023/09/19 04:42:40;;;;;;;1.63;1.27;;;;;;;16.76;84.41;97742.72;5055634;28;20515;-81
2023/09/19 04:45:09;;;;;;;1.67;1.30;;;;;;;16.67;85.86;97738.75;5056277;28;20482;-80
2023/09/19 04:47:38;;;;;;;1.47;1.37;;;;;;;16.63;87.00;97749.31;5064045;28;20452;-81
2023/09/19 04:50:11;;;;;;;1.50;1.33;;;;;;;16.78;85.61;97752.34;5060319;28;20565;-81
2023/09/19 04:52:43;;;;;;;1.77;1.67;;;;;;;16.81;84.51;97747.44;5060396;28;20541;-81
2023/09/19 04:55:13;;;;;;;1.80;1.70;;;;;;;16.86;83.67;97753.00;5061901;28;21727;-81
2023/09/19 04:57:41;;;;;;;1.87;1.73;;;;;;;16.78;83.81;97755.06;5063667;28;21070;-81
2023/09/19 05:00:12;;;;;;;3.10;1.77;;;;;;;16.83;84.00;97770.72;5064529;28;20454;-81
2023/09/19 05:02:40;;;;;;;1.53;1.43;;;;;;;16.59;85.40;97770.00;5060649;28;20477;-81
2023/09/19 05:05:08;;;;;;;1.70;1.23;;;;;;;16.63;86.51;97771.16;5065610;28;22332;-83
2023/09/19 05:07:35;;;;;;;1.60;1.50;;;;;;;16.55;88.64;97773.50;5064529;28;21097;-82
2023/09/19 05:10:06;;;;;;;2.03;1.83;;;;;;;16.64;86.82;97772.03;5066453;28;20516;-82
2023/09/19 05:12:33;;;;;;;2.70;1.70;;;;;;;16.58;87.36;97778.44;5062536;28;20474;-85
2023/09/19 05:15:01;;;;;;;2.07;1.80;;;;;;;16.60;87.54;97779.84;5067436;28;20478;-83
2023/09/19 05:17:28;;;;;;;2.70;1.80;;;;;;;16.56;88.63;97784.19;5063698;28;23484;-81
2023/09/19 05:19:55;;;;;;;4.17;2.50;;;;;;;16.43;87.83;97787.22;5064622;28;20454;-82
2023/09/19 05:22:21;;;;;;;1.93;1.70;;;;;;;16.38;88.60;97798.03;5063502;28;20538;-83
2023/09/19 05:24:48;;;;;;;3.10;2.00;;;;;;;16.21;89.83;97811.69;5066805;28;20488;-86
2023/09/19 05:27:17;;;;;;;3.20;2.33;;;;;;;16.15;90.95;97809.09;5068888;28;20453;-85
2023/09/19 05:29:44;;;;;;;2.00;1.80;;;;;;;15.97;89.76;97804.63;5070815;28;21032;-84
2023/09/19 05:32:11;;;;;;;1.90;1.70;;;;;;;15.71;91.75;97806.00;5070034;28;20490;-85
2023/09/19 05:34:38;;;;;;;2.30;2.10;;;;;;;15.68;90.83;97804.59;5069343;28;20470;-83
2023/09/19 05:37:06;;;;;;;2.63;2.03;;;;;;;15.62;91.04;97807.44;5066204;28;20458;-84
2023/09/19 05:39:33;;;;;;;2.03;1.83;;;;;;;15.42;92.38;97814.09;5066438;28;20462;-83
2023/09/19 05:42:01;;;;;;;3.73;2.10;;;;;;;15.42;92.39;97808.63;5066799;28;20458;-83
2023/09/19 05:44:29;;;;;;;2.13;1.40;;;;;;;15.45;92.46;97818.22;5066550;28;20839;-82
2023/09/19 05:46:57;;;;;;;1.80;1.70;;;;;;;15.36;93.61;97815.03;5065830;28;20558;-82
2023/09/19 05:49:24;;;;;;;1.93;1.83;;;;;;;15.31;94.03;97825.81;5067689;28;20465;-82
2023/09/19 05:51:53;;;;;;;2.23;2.03;;;;;;;15.34;94.21;97825.34;5067666;28;20490;-82
2023/09/19 05:54:20;;;;;;;2.60;2.40;;;;;;;15.42;93.19;97833.19;5066398;28;20514;-82
2023/09/19 05:56:48;;;;;;;2.23;2.03;;;;;;;15.23;93.79;97841.72;5066491;28;20451;-81
2023/09/19 05:59:16;;;;;;;2.10;2.00;;;;;;;15.35;94.15;97850.72;5064571;28;20545;-82
2023/09/19 06:01:44;;;;;;;2.70;2.20;;;;;;;15.24;93.33;97843.38;5063907;28;20466;-82
2023/09/19 06:04:11;;;;;;;2.40;2.20;;;;;;;15.31;92.89;97861.28;5067698;28;20481;-83
2023/09/19 06:06:38;;;;;;;2.67;2.47;;;;;;;15.08;91.49;97858.53;5066770;28;20446;-83
2023/09/19 06:09:06;;;;;;;2.90;2.50;;;;;;;14.78;91.07;97856.72;5062824;28;20458;-83
2023/09/19 06:11:34;;;;;;;3.77;2.93;;;;;;;14.69;92.26;97860.00;5062788;28;20493;-83
2023/09/19 06:14:02;;;;;;;3.50;2.63;;;;;;;14.81;92.46;97865.47;5066912;28;20830;-82
2023/09/19 06:16:29;;;;;;;3.70;2.30;;;;;;;14.71;91.79;97863.31;5066401;28;20450;-82
2023/09/19 06:18:58;;;;;;;2.30;2.10;;;;;;;14.58;92.63;97866.25;5064057;28;20504;-79
2023/09/19 06:21:26;;;;;;;4.00;2.70;;;;;;;14.54;92.81;97863.16;5061104;28;20541;-82
2023/09/19 06:23:54;;;;;;;4.10;2.60;;;;;;;14.79;91.86;97860.25;5063240;28;20478;-81
2023/09/19 06:26:21;;;;;;;2.67;2.47;;;;;;;14.96;91.05;97853.06;5063484;28;20450;-82
2023/09/19 06:28:47;;;;;;;4.13;3.00;;;;;;;15.13;91.06;97862.22;5063828;28;20458;-82
2023/09/19 06:31:15;;;;;;;4.23;2.70;;;;;;;15.15;89.87;97862.00;5065746;28;20651;-81
2023/09/19 06:33:43;;;;;;;6.80;3.67;;;;;;;15.25;90.77;97856.78;5060271;28;20481;-81
2023/09/19 06:36:11;;;;;;;2.70;2.33;;;;;;;15.22;89.49;97864.59;5057070;28;20961;-81
2023/09/19 06:38:39;;;;;;;2.83;2.53;;;;;;;15.35;88.34;97865.19;5065645;28;20461;-82
2023/09/19 06:41:07;;;;;;;3.97;2.60;;;;;;;15.44;88.47;97871.13;5065609;28;20482;-81
2023/09/19 06:43:35;;;;;;;3.53;2.50;;;;;;;15.55;86.46;97869.47;5066655;28;20595;-81
2023/09/19 06:46:02;;;;;;;3.77;2.37;;;;;;;15.78;85.42;97861.28;5067932;28;20455;-81
2023/09/19 06:48:30;;;;;;;3.00;2.10;;;;;;;16.05;83.62;97876.06;5068133;28;20484;-81
2023/09/19 06:50:58;;;;;;;3.23;2.00;;;;;;;16.12;83.43;97874.03;5066667;28;20486;-81
2023/09/19 06:53:26;;;;;;;4.00;2.43;;;;;;;16.48;82.40;97877.47;5067307;28;20573;-82
2023/09/19 06:55:53;;;;;;;3.77;2.20;;;;;;;16.33;80.64;97879.88;5068614;28;20518;-81
2023/09/19 06:58:20;;;;;;;4.40;2.57;;;;;;;16.69;80.60;97879.53;5069294;28;20872;-81
2023/09/19 07:00:47;;;;;;;4.93;2.40;;;;;;;16.92;79.08;97875.84;5066240;28;20604;-81
2023/09/19 07:03:16;;;;;;;3.10;2.10;;;;;;;17.08;77.94;97879.69;5068171;28;20477;-81
2023/09/19 07:05:42;;;;;;;2.50;1.83;;;;;;;17.30;77.37;97880.56;5066518;28;20537;-81
2023/09/19 07:08:12;;;;;;;2.83;2.10;;;;;;;17.58;76.57;97882.38;5066738;28;20502;-80
2023/09/19 07:10:41;;;;;;;2.33;1.70;;;;;;;17.74;75.29;97894.44;5065884;28;20978;-80
2023/09/19 07:13:10;;;;;;;2.07;1.87;;;;;;;17.31;75.71;97892.34;5069641;28;20514;-81
2023/09/19 07:15:39;;;;;;;37.70;33.87;;;;;;;21.18;67.42;97901.03;5066915;28;20459;-81
2023/09/19 07:18:09;;;;;;;9.83;7.80;;;;;;;19.08;68.52;97902.09;5065337;28;20838;-81
2023/09/19 07:20:36;;;;;;;3.07;2.77;;;;;;;18.53;70.94;97914.06;5067219;28;20482;-80
2023/09/19 07:23:03;;;;;;;5.60;4.50;;;;;;;18.86;74.05;97910.34;5066446;28;20454;-80
2023/09/19 07:25:31;;;;;;;2.73;2.30;;;;;;;18.41;72.00;97907.91;5069135;28;20949;-80
2023/09/19 07:28:00;;;;;;;3.50;2.40;;;;;;;17.97;73.54;97913.38;5067519;28;20462;-79
2023/09/19 07:30:27;;;;;;;3.00;2.03;;;;;;;17.71;75.40;97914.91;5067169;28;20476;-81
2023/09/19 07:32:54;;;;;;;3.97;2.03;;;;;;;18.00;73.92;97920.25;5068122;28;20543;-80
2023/09/19 07:35:21;;;;;;;1.77;1.60;;;;;;;18.01;72.76;97920.00;5066162;28;21017;-79
2023/09/19 07:37:49;;;;;;;2.33;1.83;;;;;;;17.68;74.34;97920.06;5057120;28;20446;-80
2023/09/19 07:40:15;;;;;;;4.70;2.07;;;;;;;17.77;74.35;97929.53;5062016;28;20878;-80
2023/09/19 07:42:44;;;;;;;3.90;2.20;;;;;;;17.99;74.11;97938.59;5065378;28;20557;-80
2023/09/19 07:45:14;;;;;;;2.37;1.70;;;;;;;18.60;72.10;97920.22;5064374;28;20479;-81
2023/09/19 07:47:42;;;;;;;2.20;1.70;;;;;;;18.83;70.29;97932.00;5063000;28;20457;-80
2023/09/19 07:50:11;;;;;;;4.50;2.70;;;;;;;19.03;69.92;97933.03;5062843;28;20966;-80
2023/09/19 07:52:39;;;;;;;2.30;1.90;;;;;;;19.53;68.07;97931.88;5063559;28;20490;-80
2023/09/19 07:55:08;;;;;;;2.63;1.93;;;;;;;19.55;66.41;97928.84;5066131;28;20472;-80
2023/09/19 07:57:35;;;;;;;7.73;5.50;;;;;;;19.24;67.27;97936.81;5062148;28;20466;-80
2023/09/19 08:00:04;;;;;;;9.30;8.30;;;;;;;19.58;66.54;97933.81;5066622;28;20531;-80
2023/09/19 08:02:35;;;;;;;6.87;5.20;;;;;;;19.50;66.92;97942.50;5064122;28;20545;-80
2023/09/19 08:05:06;;;;;;;23.67;21.90;;;;;;;19.54;66.94;97949.16;5065248;28;20469;-79
2023/09/19 08:07:32;;;;;;;2.70;1.90;;;;;;;19.18;67.71;97942.50;5065542;28;20510;-80
2023/09/19 08:09:59;;;;;;;3.90;2.73;;;;;;;19.29;66.20;97947.81;5066016;28;20537;-81
2023/09/19 08:12:26;;;;;;;2.70;1.77;;;;;;;19.82;65.20;97940.59;5067850;28;20589;-80
2023/09/19 08:14:53;;;;;;;1.97;1.60;;;;;;;19.80;64.67;97953.78;5063073;28;20477;-80
2023/09/19 08:17:22;;;;;;;2.23;1.80;;;;;;;20.16;63.32;97945.75;5063919;28;20547;-79
2023/09/19 08:19:52;;;;;;;2.83;1.50;;;;;;;20.43;60.58;97952.00;5059382;28;20888;-80
2023/09/19 08:22:19;;;;;;;2.10;1.50;;;;;;;20.49;61.37;97945.41;5064078;28;20540;-81
2023/09/19 08:24:47;;;;;;;2.27;1.63;;;;;;;20.20;62.51;97941.38;5065450;28;20516;-79
2023/09/19 08:27:17;;;;;;;2.30;2.10;;;;;;;20.66;61.01;97946.03;5063553;28;20456;-81
2023/09/19 08:29:44;;;;;;;2.60;1.50;;;;;;;21.09;58.28;97943.97;5067405;28;20545;-81
2023/09/19 08:32:11;;;;;;;6.63;6.10;;;;;;;21.25;58.17;97942.09;5065966;28;20569;-81
2023/09/19 08:34:38;;;;;;;1.97;1.50;;;;;;;21.37;57.05;97939.91;5068904;28;20877;-80
2023/09/19 08:37:07;;;;;;;4.57;2.30;;;;;;;21.48;56.58;97941.53;5067304;28;20507;-80
2023/09/19 08:39:35;;;;;;;2.83;1.67;;;;;;;21.30;57.11;97951.19;5068398;28;20476;-80
2023/09/19 08:42:02;;;;;;;1.40;1.30;;;;;;;20.64;57.81;97959.22;5067102;28;20928;-79
2023/09/19 08:44:30;;;;;;;2.20;1.57;;;;;;;20.92;58.89;97959.88;5069199;28;20550;-80
2023/09/19 08:47:04;;;;;;;1.50;1.13;;;;;;;20.97;57.06;97957.97;5068355;28;20564;-80
2023/09/19 08:49:37;;;;;;;2.30;1.50;;;;;;;20.79;58.62;97970.28;5067701;28;21021;-79
2023/09/19 08:52:11;;;;;;;3.57;1.70;;;;;;;20.95;58.18;97967.59;5069712;28;20517;-80
2023/09/19 08:54:39;;;;;;;1.53;1.43;;;;;;;20.92;57.40;97960.69;5068508;28;20477;-79
2023/09/19 08:57:10;;;;;;;5.23;2.20;;;;;;;20.92;57.14;97982.72;5067616;28;20537;-80
2023/09/19 08:59:39;;;;;;;1.87;1.37;;;;;;;20.78;57.60;97976.91;5069121;28;20992;-80
2023/09/19 09:02:11;;;;;;;1.87;1.77;;;;;;;21.27;56.23;97971.00;5070226;28;20481;-80
2023/09/19 09:04:39;;;;;;;1.53;1.33;;;;;;;21.10;57.03;97973.97;5071016;28;20466;-80
2023/09/19 09:07:11;;;;;;;1.40;1.30;;;;;;;21.74;54.98;97961.69;5067993;28;20469;-80
2023/09/19 09:09:42;;;;;;;2.40;1.60;;;;;;;21.64;54.39;97968.00;5067776;28;20454;-81
2023/09/19 09:12:10;;;;;;;1.83;1.70;;;;;;;21.77;52.81;97972.13;5066285;28;20477;-81
2023/09/19 09:14:38;;;;;;;1.93;1.50;;;;;;;21.55;52.62;97968.81;5067910;28;20474;-80
2023/09/19 09:17:04;;;;;;;1.37;1.20;;;;;;;21.20;53.95;97967.66;5063297;28;21027;-80
2023/09/19 09:19:31;;;;;;;1.57;1.47;;;;;;;20.90;51.09;97973.91;5069165;28;20490;-79
2023/09/19 09:22:08;;;;;;;2.50;1.63;;;;;;;20.30;53.23;97986.25;5064334;28;20462;-79
2023/09/19 09:24:37;;;;;;;1.90;1.50;;;;;;;20.13;54.54;97980.94;5065833;28;20474;-80
2023/09/19 09:27:05;;;;;;;4.90;1.40;;;;;;;19.93;55.50;97982.72;5066556;28;20511;-80
2023/09/19 09:29:48;;;;;;;1.50;1.40;;;;;;;19.08;56.11;97978.91;5066399;28;20961;-79
2023/09/19 09:32:23;;;;;;;1.60;1.50;;;;;;;18.93;56.98;97987.78;5062003;28;20476;-80
2023/09/19 09:34:52;;;;;;;1.67;1.30;;;;;;;19.43;56.80;97987.50;5061403;28;21210;-82
2023/09/19 09:37:21;;;;;;;1.93;1.30;;;;;;;19.88;55.72;97982.66;5066186;28;20459;-80
2023/09/19 09:39:54;;;;;;;1.90;1.23;;;;;;;20.51;53.02;97987.22;5068841;28;20968;-80
2023/09/19 09:42:32;;;;;;;3.27;1.70;;;;;;;21.29;51.60;97976.25;5067628;28;20461;-80
2023/09/19 09:45:16;;;;;;;2.83;2.60;;;;;;;21.62;49.67;97974.91;5062676;28;20547;-81
2023/09/19 09:47:49;;;;;;;1.70;1.60;;;;;;;21.54;50.52;97989.22;5064946;28;20553;-80
2023/09/19 09:50:37;;;;;;;4.10;1.67;;;;;;;21.63;48.36;97982.06;5068156;28;20462;-80
2023/09/19 09:53:09;;;;;;;3.70;3.40;;;;;;;21.58;49.54;97965.53;5060302;28;20486;-80
2023/09/19 09:56:05;;;;;;;10.93;10.03;;;;;;;22.55;48.29;97972.56;5068224;28;20446;-78
2023/09/19 09:58:35;;;;;;;1.90;1.60;;;;;;;22.51;48.11;97965.97;5069308;28;20454;-78
2023/09/19 10:01:08;;;;;;;1.47;1.30;;;;;;;22.64;47.39;97970.06;5067434;28;20819;-78
2023/09/19 10:03:41;;;;;;;1.40;1.30;;;;;;;22.48;46.50;97971.22;5063407;28;21107;-80
2023/09/19 10:06:25;;;;;;;2.40;1.53;;;;;;;21.99;46.82;97975.44;5065912;28;20463;-79
2023/09/19 10:09:10;;;;;;;1.70;1.60;;;;;;;20.85;48.67;97959.28;5063941;28;20466;-79
2023/09/19 10:11:42;;;;;;;2.60;1.70;;;;;;;21.54;48.62;97961.66;5063624;28;20966;-80
2023/09/19 10:14:12;;;;;;;1.73;1.40;;;;;;;22.49;46.32;97973.69;5064499;28;20478;-80
2023/09/19 10:16:41;;;;;;;4.03;1.70;;;;;;;22.72;45.83;97967.56;5064923;28;20454;-80
2023/09/19 10:19:09;;;;;;;1.63;1.20;;;;;;;23.22;44.28;97965.66;5066896;28;20945;-80
2023/09/19 10:21:39;;;;;;;4.10;3.70;;;;;;;23.22;42.15;97959.31;5067614;28;20457;-79
2023/09/19 10:24:08;;;;;;;2.20;2.00;;;;;;;22.99;43.48;97975.47;5065707;28;20476;-80
2023/09/19 10:26:36;;;;;;;2.77;2.37;;;;;;;23.40;42.89;97958.63;5068068;28;21032;-80
2023/09/19 10:29:07;;;;;;;2.00;1.30;;;;;;;24.16;40.68;97913.75;5072448;28;20453;-78
2023/09/19 10:31:35;;;;;;;1.93;1.27;;;;;;;24.07;41.54;97956.97;5068119;28;20479;-79
2023/09/19 10:34:04;;;;;;;2.17;1.47;;;;;;;22.76;43.78;97957.56;5070524;28;20463;-79
2023/09/19 10:36:34;;;;;;;2.50;1.50;;;;;;;23.38;42.40;97961.69;5066703;28;20537;-80
2023/09/19 10:39:06;;;;;;;2.37;1.40;;;;;;;24.62;40.85;97952.84;5068085;28;20469;-79
2023/09/19 10:41:37;;;;;;;1.70;1.40;;;;;;;24.48;39.42;97949.13;5065741;28;20533;-79
2023/09/19 10:44:06;;;;;;;2.10;1.30;;;;;;;23.78;40.08;97979.09;5068440;28;20561;-80
2023/09/19 10:46:33;;;;;;;1.93;1.30;;;;;;;23.11;41.43;97964.06;5064181;28;20465;-79
2023/09/19 10:49:01;;;;;;;9.53;2.10;;;;;;;23.27;42.33;97968.38;5064332;28;20962;-79
2023/09/19 10:51:31;;;;;;;1.93;1.50;;;;;;;23.20;41.47;97951.31;5064402;28;20454;-80
2023/09/19 10:54:04;;;;;;;1.50;1.20;;;;;;;22.37;42.51;97965.75;5061245;28;20977;-79
2023/09/19 10:56:36;;;;;;;259.43;34.50;;;;;;;22.65;42.81;97961.50;5065759;28;20454;-80
2023/09/19 10:59:10;;;;;;;1.80;1.33;;;;;;;23.65;41.21;97960.41;5065514;28;20583;-80
2023/09/19 11:01:48;;;;;;;1.83;1.20;;;;;;;24.49;39.73;97950.75;5064919;28;20448;-80
2023/09/19 11:04:23;;;;;;;2.17;1.40;;;;;;;23.69;40.09;97964.25;5061941;28;20576;-80
2023/09/19 11:07:00;;;;;;;1.67;1.57;;;;;;;22.42;43.34;97962.94;5059392;28;20457;-81
2023/09/19 11:09:45;;;;;;;1.57;1.13;;;;;;;21.84;43.97;97961.66;5064215;28;20465;-81
2023/09/19 11:12:13;;;;;;;2.10;1.53;;;;;;;22.11;43.99;97955.84;5065826;28;20551;-80
2023/09/19 11:14:44;;;;;;;3.87;3.10;;;;;;;21.95;43.53;97946.78;5063735;28;20834;-80
2023/09/19 11:17:46;;;;;;;1.83;1.47;;;;;;;21.79;45.64;97962.47;5063322;28;20486;-81
2023/09/19 11:20:24;;;;;;;2.47;1.50;;;;;;;21.82;47.60;97952.00;5063515;28;20493;-81
2023/09/19 11:23:22;;;;;;;2.13;1.40;;;;;;;21.80;48.41;97961.38;5060690;28;20484;-80
2023/09/19 11:25:54;;;;;;;2.50;1.67;;;;;;;21.61;47.88;97954.78;5064365;28;20488;-80
2023/09/19 11:28:31;;;;;;;1.80;1.70;;;;;;;21.88;47.29;97948.97;5067608;28;20455;-80
2023/09/19 11:30:59;;;;;;;1.57;1.40;;;;;;;22.48;45.83;97943.63;5068011;28;21106;-80
2023/09/19 11:33:31;;;;;;;2.70;1.37;;;;;;;23.49;43.88;97939.50;5065150;28;21031;-81
2023/09/19 11:36:02;;;;;;;2.57;1.87;;;;;;;24.18;41.71;97932.81;5061701;28;20573;-80
2023/09/19 11:39:14;;;;;;;1.97;1.50;;;;;;;24.72;40.93;97933.31;5065999;28;20468;-80
2023/09/19 11:41:41;;;;;;;1.40;1.30;;;;;;;25.71;39.72;97935.22;5064243;28;20469;-80
2023/09/19 11:44:40;;;;;;;2.37;1.60;;;;;;;25.61;38.59;97927.06;5065864;28;20505;-80
2023/09/19 11:47:09;;;;;;;2.03;1.20;;;;;;;24.94;39.48;97931.94;5033491;28;20466;-80